createdAt,value
2022-12-19T00:01:35.295Z,97919.19
2022-12-19T00:04:07.615Z,97917.31
2022-12-19T00:06:35.478Z,97900.81
2022-12-19T00:09:01.987Z,97869.78
2022-12-19T00:11:30.815Z,97883.25
2022-12-19T00:13:58.055Z,97873.16
2022-12-19T00:16:27.708Z,97856.44
2022-12-19T00:18:57.203Z,97823.22
2022-12-19T00:21:24.878Z,97794.81
2022-12-19T00:23:51.697Z,97788.16
2022-12-19T00:26:31.296Z,97790.03
2022-12-19T00:28:58.977Z,97785.44
2022-12-19T00:31:26.692Z,97766.84
2022-12-19T00:33:53.360Z,97739.25
2022-12-19T00:36:22.540Z,97729.16
2022-12-19T00:38:51.232Z,97863.28
2022-12-19T00:41:19.418Z,97863.13
2022-12-19T00:43:46.054Z,97788.19
2022-12-19T00:46:13.894Z,97740.59
2022-12-19T00:48:40.927Z,97714.91
2022-12-19T00:51:10.898Z,97705.59
2022-12-19T00:53:39.390Z,97697.91
2022-12-19T00:56:07.390Z,97698.72
2022-12-19T00:58:35.602Z,97691.31
2022-12-19T01:01:09.444Z,97683.91
2022-12-19T01:03:35.986Z,97744.66
2022-12-19T01:06:02.610Z,97739.34
2022-12-19T01:08:29.801Z,97711.91
2022-12-19T01:10:58.285Z,97673.25
2022-12-19T01:13:25.601Z,97679.59
2022-12-19T01:15:52.245Z,97723.41
2022-12-19T01:18:18.706Z,97744.47
2022-12-19T01:20:49.851Z,97709.38
2022-12-19T01:23:16.770Z,97721.41
2022-12-19T01:25:45.993Z,97706.59
2022-12-19T01:28:14.017Z,97663.03
2022-12-19T01:30:41.794Z,97644.78
2022-12-19T01:33:10.470Z,97631.28
2022-12-19T01:35:36.922Z,97639.19
2022-12-19T01:38:07.751Z,97639.97
2022-12-19T01:40:35.109Z,97638.91
2022-12-19T01:43:02.298Z,97636.00
2022-12-19T01:45:34.420Z,97628.41
2022-12-19T01:48:12.122Z,97617.06
2022-12-19T01:50:56.030Z,97612.28
2022-12-19T01:53:34.748Z,97635.50
2022-12-19T01:56:08.713Z,97658.28
2022-12-19T01:58:36.167Z,97726.44
2022-12-19T02:01:03.122Z,97795.97
2022-12-19T02:03:31.904Z,97788.91
2022-12-19T02:05:58.789Z,97796.66
2022-12-19T02:08:28.592Z,97770.31
2022-12-19T02:10:57.237Z,97776.88
2022-12-19T02:13:24.076Z,97766.47
2022-12-19T02:16:02.026Z,97772.41
2022-12-19T02:18:44.737Z,97775.88
2022-12-19T02:21:35.221Z,97743.72
2022-12-19T02:24:07.843Z,97685.91
2022-12-19T02:26:43.907Z,97676.94
2022-12-19T02:29:13.330Z,97698.38
2022-12-19T02:31:47.588Z,97697.44
2022-12-19T02:34:28.509Z,97696.03
2022-12-19T02:37:15.217Z,97680.50
2022-12-19T02:39:52.644Z,97702.94
2022-12-19T02:42:33.543Z,97669.06
2022-12-19T02:45:01.241Z,97660.88
2022-12-19T02:47:28.595Z,97713.38
2022-12-19T02:49:55.070Z,97730.63
2022-12-19T02:52:21.519Z,97759.19
2022-12-19T02:54:52.781Z,97774.94
2022-12-19T02:57:30.713Z,97746.00
2022-12-19T03:00:05.524Z,97691.06
2022-12-19T03:02:35.223Z,97668.28
2022-12-19T03:05:10.923Z,97693.63
2022-12-19T03:07:42.713Z,97671.63
2022-12-19T03:10:18.499Z,97653.72
2022-12-19T03:12:54.250Z,97651.31
2022-12-19T03:15:21.035Z,97659.84
2022-12-19T03:17:48.073Z,97681.19
2022-12-19T03:20:22.307Z,97683.13
2022-12-19T03:22:48.804Z,97688.09
2022-12-19T03:25:15.311Z,97685.03
2022-12-19T03:27:42.152Z,97679.69
2022-12-19T03:30:13.399Z,97695.63
2022-12-19T03:32:42.039Z,97719.28
2022-12-19T03:35:15.835Z,97690.81
2022-12-19T03:37:43.294Z,97673.34
2022-12-19T03:40:15.158Z,97699.53
2022-12-19T03:43:00.726Z,97729.19
2022-12-19T03:45:33.580Z,97736.72
2022-12-19T03:48:07.765Z,97737.22
2022-12-19T03:50:42.013Z,97734.13
2022-12-19T03:53:17.358Z,97715.13
2022-12-19T03:55:49.797Z,97719.44
2022-12-19T03:58:22.219Z,97714.88
2022-12-19T04:00:49.910Z,97701.03
2022-12-19T04:03:17.443Z,97691.41
2022-12-19T04:05:45.816Z,97705.19
2022-12-19T04:08:12.848Z,97685.53
2022-12-19T04:10:50.841Z,97674.00
2022-12-19T04:13:20.702Z,97688.56
2022-12-19T04:15:47.200Z,97694.31
2022-12-19T04:18:16.820Z,97693.84
2022-12-19T04:20:45.881Z,97691.13
2022-12-19T04:23:17.878Z,97687.91
2022-12-19T04:25:47.135Z,97670.56
2022-12-19T04:28:13.550Z,97644.88
2022-12-19T04:30:41.302Z,97631.19
2022-12-19T04:33:08.012Z,97597.94
2022-12-19T04:35:34.669Z,97603.25
2022-12-19T04:38:01.273Z,97596.41
2022-12-19T04:40:28.010Z,97626.63
2022-12-19T04:42:54.468Z,97618.25
2022-12-19T04:45:20.909Z,97590.28
2022-12-19T04:47:47.868Z,97590.94
2022-12-19T04:50:14.357Z,97603.19
2022-12-19T04:52:40.877Z,97601.81
2022-12-19T04:55:07.700Z,97563.44
2022-12-19T04:57:34.256Z,97542.31
2022-12-19T05:00:00.893Z,97547.69
2022-12-19T05:02:27.791Z,97549.16
2022-12-19T05:04:55.606Z,97538.91
2022-12-19T05:07:22.128Z,97525.75
2022-12-19T05:09:49.771Z,97513.34
2022-12-19T05:12:16.267Z,97501.50
2022-12-19T05:14:43.175Z,97487.03
2022-12-19T05:17:09.663Z,97474.13
2022-12-19T05:19:36.840Z,97464.75
2022-12-19T05:22:03.401Z,97445.47
2022-12-19T05:24:30.023Z,97423.16
2022-12-19T05:26:56.548Z,97421.13
2022-12-19T05:29:23.092Z,97426.94
2022-12-19T05:31:49.748Z,97404.50
2022-12-19T05:34:16.302Z,97375.97
2022-12-19T05:36:42.818Z,97336.56
2022-12-19T05:39:09.385Z,97314.03
2022-12-19T05:41:35.924Z,97327.03
2022-12-19T05:44:02.522Z,97339.47
2022-12-19T05:46:29.156Z,97328.63
2022-12-19T05:48:55.789Z,97339.47
2022-12-19T05:51:23.224Z,97352.19
2022-12-19T05:53:49.803Z,97356.69
2022-12-19T05:56:17.708Z,97353.53
2022-12-19T05:58:45.219Z,97349.03
2022-12-19T06:01:11.652Z,97335.78
2022-12-19T06:03:38.658Z,97326.25
2022-12-19T06:06:06.118Z,97311.13
2022-12-19T06:08:33.015Z,97286.75
2022-12-19T06:11:00.355Z,97274.53
2022-12-19T06:13:27.555Z,97249.81
2022-12-19T06:16:03.245Z,97224.53
2022-12-19T06:18:30.731Z,97229.78
2022-12-19T06:20:58.617Z,97240.97
2022-12-19T06:23:25.546Z,97255.38
2022-12-19T06:25:52.138Z,97272.34
2022-12-19T06:28:18.577Z,97272.09
2022-12-19T06:30:45.129Z,97272.03
2022-12-19T06:33:11.667Z,97271.75
2022-12-19T06:35:38.183Z,97296.69
2022-12-19T06:38:04.679Z,97307.88
2022-12-19T06:40:49.799Z,97309.50
2022-12-19T06:43:16.427Z,97300.72
2022-12-19T06:45:42.951Z,97303.09
2022-12-19T06:48:09.654Z,97293.50
2022-12-19T06:50:36.160Z,97290.84
2022-12-19T06:53:02.602Z,97289.78
2022-12-19T06:55:29.192Z,97292.72
2022-12-19T06:57:55.874Z,97283.97
2022-12-19T07:00:22.900Z,97286.09
2022-12-19T07:02:50.894Z,97289.28
2022-12-19T07:05:17.982Z,97282.91
2022-12-19T07:07:44.836Z,97273.88
2022-12-19T07:10:11.505Z,97273.88
2022-12-19T07:12:38.252Z,97263.53
2022-12-19T07:15:05.030Z,97260.63
2022-12-19T07:17:31.659Z,97265.38
2022-12-19T07:19:59.707Z,97235.59
2022-12-19T07:22:29.153Z,97230.72
2022-12-19T07:24:56.601Z,97230.22
2022-12-19T07:27:23.199Z,97248.59
2022-12-19T07:29:49.689Z,97255.47
2022-12-19T07:32:16.163Z,97243.53
2022-12-19T07:34:42.621Z,97232.56
2022-12-19T07:37:09.143Z,97221.91
2022-12-19T07:39:35.577Z,97230.16
2022-12-19T07:42:02.027Z,97227.00
2022-12-19T07:44:28.582Z,97237.09
2022-12-19T07:46:55.091Z,97242.19
2022-12-19T07:49:22.954Z,97240.28
2022-12-19T07:51:49.832Z,97232.31
2022-12-19T07:54:16.377Z,97216.25
2022-12-19T07:56:42.833Z,97213.94
2022-12-19T07:59:09.355Z,97211.28
2022-12-19T08:01:35.927Z,97217.41
2022-12-19T08:04:02.731Z,97214.25
2022-12-19T08:06:29.225Z,97205.19
2022-12-19T08:08:56.053Z,97199.22
2022-12-19T08:11:27.513Z,97182.88
2022-12-19T08:13:54.564Z,97182.00
2022-12-19T08:16:21.592Z,97172.44
2022-12-19T08:18:49.290Z,97176.22
2022-12-19T08:21:15.774Z,97188.75
2022-12-19T08:23:42.272Z,97193.28
2022-12-19T08:26:11.189Z,97206.03
2022-12-19T08:28:37.840Z,97189.97
2022-12-19T08:31:08.631Z,97202.50
2022-12-19T08:33:37.484Z,97209.75
2022-12-19T08:36:05.168Z,97215.06
2022-12-19T08:38:32.091Z,97229.41
2022-12-19T08:40:58.758Z,97228.34
2022-12-19T08:43:26.655Z,97231.50
2022-12-19T08:45:53.602Z,97219.97
2022-12-19T08:48:20.569Z,97213.75
2022-12-19T08:50:50.041Z,97210.47
2022-12-19T08:53:20.224Z,97210.22
2022-12-19T08:55:59.921Z,97212.63
2022-12-19T08:58:27.526Z,97215.28
2022-12-19T09:00:56.507Z,97204.56
2022-12-19T09:03:25.640Z,97208.31
2022-12-19T09:06:07.920Z,97216.31
2022-12-19T09:08:37.325Z,97239.84
2022-12-19T09:11:03.749Z,97234.25
2022-12-19T09:13:30.758Z,97231.09
2022-12-19T09:16:04.832Z,97229.75
2022-12-19T09:18:32.482Z,97231.88
2022-12-19T09:21:00.408Z,97228.41
2022-12-19T09:23:29.280Z,97211.25
2022-12-19T09:25:56.785Z,97210.97
2022-12-19T09:28:27.745Z,97198.78
2022-12-19T09:30:58.410Z,97191.84
2022-12-19T09:33:25.197Z,97176.06
2022-12-19T09:35:52.287Z,97165.22
2022-12-19T09:38:21.563Z,97162.06
2022-12-19T09:41:19.243Z,97164.19
2022-12-19T09:44:01.360Z,97140.56
2022-12-19T09:46:32.238Z,97134.22
2022-12-19T09:49:01.602Z,97133.16
2022-12-19T09:51:33.833Z,97112.41
2022-12-19T09:54:16.418Z,97102.84
2022-12-19T09:56:46.487Z,97078.22
2022-12-19T09:59:23.069Z,97065.38
2022-12-19T10:01:57.952Z,97058.81
2022-12-19T10:04:26.747Z,97044.31
2022-12-19T10:07:21.957Z,97022.31
2022-12-19T10:12:25.337Z,97014.72
2022-12-19T10:13:11.040Z,97008.50
2022-12-19T10:15:59.799Z,97018.78
2022-12-19T10:18:56.393Z,97001.38
2022-12-19T10:21:42.934Z,97003.59
2022-12-19T10:24:09.978Z,97009.31
2022-12-19T10:26:39.273Z,96987.19
2022-12-19T10:29:24.563Z,96959.31
2022-12-19T10:31:53.732Z,96936.28
2022-12-19T10:34:24.998Z,96902.41
2022-12-19T10:39:43.857Z,96885.47
2022-12-19T10:42:18.810Z,96872.59
2022-12-19T10:44:46.463Z,96862.34
2022-12-19T10:47:17.409Z,96850.25
2022-12-19T10:49:43.928Z,96836.66
2022-12-19T10:52:12.135Z,96826.22
2022-12-19T10:54:39.971Z,96813.59
2022-12-19T10:57:18.790Z,96815.56
2022-12-19T11:00:06.375Z,96795.84
2022-12-19T11:02:38.977Z,96793.69
2022-12-19T11:05:19.765Z,96779.50
2022-12-19T11:08:04.822Z,96768.81
2022-12-19T11:12:21.526Z,96747.09
2022-12-19T11:18:35.885Z,96750.59
2022-12-19T11:19:49.699Z,96729.66
2022-12-19T11:29:18.575Z,96728.66
2022-12-19T11:29:42.811Z,96722.75
2022-12-19T11:29:55.168Z,96715.97
2022-12-19T11:30:40.813Z,96705.22
2022-12-19T11:33:24.336Z,96700.25
2022-12-19T11:35:52.466Z,96694.44
2022-12-19T11:38:28.943Z,96670.72
2022-12-19T11:40:57.663Z,96655.31
2022-12-19T11:43:48.757Z,96654.38
2022-12-19T11:46:21.427Z,96652.31
2022-12-19T11:49:08.902Z,96647.78
2022-12-19T11:51:35.382Z,96639.31
2022-12-19T11:54:20.771Z,96642.50
2022-12-19T11:56:47.406Z,96633.91
2022-12-19T11:59:19.884Z,96631.34
2022-12-19T12:02:02.449Z,96620.69
2022-12-19T12:04:40.947Z,96623.84
2022-12-19T12:07:23.408Z,96607.13
2022-12-19T12:13:17.445Z,96584.91
2022-12-19T12:24:20.693Z,96577.09
2022-12-19T12:25:59.606Z,96581.94
2022-12-19T12:31:01.480Z,96574.06
2022-12-19T12:31:07.145Z,96559.38
2022-12-19T12:31:46.048Z,96513.31
2022-12-19T12:31:47.316Z,96526.16
2022-12-19T12:32:02.055Z,96543.91
2022-12-19T12:35:48.780Z,96504.53
2022-12-19T12:39:31.521Z,96482.28
2022-12-19T12:42:08.015Z,96481.81
2022-12-19T12:44:45.489Z,96465.81
2022-12-19T12:47:15.946Z,96466.59
2022-12-19T12:49:45.313Z,96446.72
2022-12-19T12:52:19.155Z,96436.06
2022-12-19T12:54:47.647Z,96425.22
2022-12-19T12:57:18.359Z,96418.31
2022-12-19T12:59:45.753Z,96415.97
2022-12-19T13:02:21.665Z,96407.03
2022-12-19T13:04:59.336Z,96404.03
2022-12-19T13:07:48.881Z,96416.91
2022-12-19T13:10:18.437Z,96414.84
2022-12-19T13:13:01.291Z,96409.53
2022-12-19T13:15:27.810Z,96414.06
2022-12-19T13:17:54.869Z,96412.19
2022-12-19T13:20:27.676Z,96404.19
2022-12-19T13:22:58.121Z,96399.19
2022-12-19T13:25:47.386Z,96397.31
2022-12-19T13:28:33.871Z,96391.50
2022-12-19T13:31:20.439Z,96380.66
2022-12-19T13:33:56.087Z,96379.88
2022-12-19T13:39:49.599Z,96385.34
2022-12-19T13:39:59.349Z,96380.97
2022-12-19T13:42:40.858Z,96379.56
2022-12-19T13:45:15.540Z,96369.94
2022-12-19T13:47:43.632Z,96368.84
2022-12-19T13:50:30.723Z,96370.88
2022-12-19T13:52:59.139Z,96388.03
2022-12-19T13:55:28.149Z,96383.03
2022-12-19T13:57:57.091Z,96378.63
2022-12-19T14:00:33.941Z,96378.94
2022-12-19T14:03:01.013Z,96368.41
2022-12-19T14:05:44.523Z,96373.75
2022-12-19T14:08:20.488Z,96364.84
2022-12-19T14:11:37.133Z,96356.50
2022-12-19T14:14:06.739Z,96351.66
2022-12-19T14:16:44.367Z,96359.53
2022-12-19T14:19:27.840Z,96370.34
2022-12-19T14:22:11.421Z,96359.66
2022-12-19T14:24:42.072Z,96349.63
2022-12-19T14:28:22.205Z,96350.56
2022-12-19T14:30:31.917Z,96342.09
2022-12-19T14:33:44.184Z,96333.13
2022-12-19T14:36:09.709Z,96327.97
2022-12-19T14:39:22.761Z,96325.47
2022-12-19T14:41:55.899Z,96318.91
2022-12-19T14:52:08.423Z,96325.63
2022-12-19T14:54:18.496Z,96327.53
2022-12-19T14:54:30.697Z,96316.22
2022-12-19T14:54:42.094Z,96306.16
2022-12-19T14:59:03.440Z,96301.81
2022-12-19T15:01:32.318Z,96320.78
2022-12-19T15:04:51.738Z,96305.88
2022-12-19T15:07:09.859Z,96296.63
2022-12-19T15:10:58.872Z,96297.53
2022-12-19T15:14:53.992Z,96313.88
2022-12-19T15:15:56.804Z,96316.22
2022-12-19T15:18:34.374Z,96318.88
2022-12-19T15:21:01.906Z,96316.41
2022-12-19T15:23:28.915Z,96309.97
2022-12-19T15:26:11.497Z,96300.38
2022-12-19T15:28:45.313Z,96316.22
2022-12-19T15:31:32.395Z,96310.41
2022-12-19T15:36:45.648Z,96311.53
2022-12-19T15:39:12.188Z,96296.94
2022-12-19T15:41:38.757Z,96296.78
2022-12-19T15:44:10.307Z,96294.44
2022-12-19T15:46:39.994Z,96299.47
2022-12-19T15:49:15.466Z,96300.09
2022-12-19T15:51:41.983Z,96294.28
2022-12-19T15:54:38.707Z,96294.47
2022-12-19T15:56:56.470Z,96292.22
2022-12-19T15:59:38.104Z,96296.34
2022-12-19T16:02:14.450Z,96295.22
2022-12-19T16:04:41.223Z,96304.16
2022-12-19T16:07:19.454Z,96307.16
2022-12-19T16:09:45.995Z,96295.38
2022-12-19T16:12:23.953Z,96277.66
2022-12-19T16:14:55.583Z,96275.97
2022-12-19T16:17:23.402Z,96284.72
2022-12-19T16:19:51.760Z,96272.03
2022-12-19T16:22:18.584Z,96268.28
2022-12-19T16:24:45.074Z,96277.69
2022-12-19T16:27:17.940Z,96265.28
2022-12-19T16:29:46.080Z,96258.41
2022-12-19T16:32:14.133Z,96257.59
2022-12-19T16:34:40.701Z,96257.16
2022-12-19T16:37:07.258Z,96254.78
2022-12-19T16:39:35.865Z,96253.53
2022-12-19T16:42:03.811Z,96248.06
2022-12-19T16:44:31.867Z,96248.38
2022-12-19T16:46:58.455Z,96254.00
2022-12-19T16:49:25.060Z,96248.53
2022-12-19T16:51:53.560Z,96249.97
2022-12-19T16:54:20.206Z,96251.06
2022-12-19T16:56:48.356Z,96235.19
2022-12-19T16:59:22.364Z,96245.53
2022-12-19T17:01:49.290Z,96247.91
2022-12-19T17:04:17.901Z,96251.81
2022-12-19T17:06:44.609Z,96257.94
2022-12-19T17:09:31.328Z,96256.38
2022-12-19T17:11:59.989Z,96239.78
2022-12-19T17:14:30.189Z,96238.81
2022-12-19T17:17:01.467Z,96236.94
2022-12-19T17:19:37.633Z,96244.94
2022-12-19T17:22:11.118Z,96243.22
2022-12-19T17:24:38.079Z,96238.66
2022-12-19T17:27:04.709Z,96227.22
2022-12-19T17:29:31.932Z,96223.00
2022-12-19T17:31:58.633Z,96222.38
2022-12-19T17:34:30.380Z,96220.81
2022-12-19T17:36:57.960Z,96219.56
2022-12-19T17:39:25.508Z,96217.66
2022-12-19T17:41:52.649Z,96220.97
2022-12-19T17:44:19.310Z,96203.56
2022-12-19T17:46:49.277Z,96200.88
2022-12-19T17:49:28.086Z,96199.81
2022-12-19T17:51:54.708Z,96198.22
2022-12-19T17:54:22.047Z,96194.47
2022-12-19T17:56:48.771Z,96193.81
2022-12-19T17:59:17.224Z,96192.56
2022-12-19T18:01:46.336Z,96191.94
2022-12-19T18:04:17.647Z,96189.09
2022-12-19T18:06:44.729Z,96183.88
2022-12-19T18:09:18.866Z,96181.41
2022-12-19T18:11:45.650Z,96187.84
2022-12-19T18:14:12.196Z,96194.91
2022-12-19T18:16:39.076Z,96193.34
2022-12-19T18:19:06.075Z,96187.69
2022-12-19T18:21:33.179Z,96200.75
2022-12-19T18:23:59.717Z,96188.56
2022-12-19T18:26:26.196Z,96186.34
2022-12-19T18:28:54.504Z,96179.63
2022-12-19T18:31:25.828Z,96159.41
2022-12-19T18:33:53.431Z,96155.81
2022-12-19T18:36:27.653Z,96155.81
2022-12-19T18:38:55.828Z,96153.16
2022-12-19T18:41:22.980Z,96135.63
2022-12-19T18:43:49.828Z,96131.88
2022-12-19T18:46:18.447Z,96137.03
2022-12-19T18:48:45.667Z,96128.56
2022-12-19T18:51:14.665Z,96119.47
2022-12-19T18:53:41.156Z,96104.41
2022-12-19T18:56:07.684Z,96111.34
2022-12-19T18:58:34.228Z,96106.66
2022-12-19T19:01:01.676Z,96110.41
2022-12-19T19:03:29.955Z,96095.69
2022-12-19T19:05:56.755Z,96091.63
2022-12-19T19:08:25.169Z,96079.72
2022-12-19T19:10:52.372Z,96069.97
2022-12-19T19:13:20.064Z,96074.38
2022-12-19T19:15:48.104Z,96075.97
2022-12-19T19:18:17.848Z,96071.41
2022-12-19T19:20:45.001Z,96071.88
2022-12-19T19:23:14.373Z,96067.66
2022-12-19T19:25:43.311Z,96059.19
2022-12-19T19:28:09.811Z,96046.16
2022-12-19T19:30:39.699Z,96043.63
2022-12-19T19:33:10.359Z,96052.00
2022-12-19T19:35:36.953Z,96055.75
2022-12-19T19:38:06.993Z,96058.72
2022-12-19T19:40:34.409Z,96047.59
2022-12-19T19:43:00.897Z,96028.13
2022-12-19T19:45:27.880Z,96031.91
2022-12-19T19:47:54.988Z,96041.47
2022-12-19T19:50:21.566Z,96037.09
2022-12-19T19:52:48.115Z,96032.25
2022-12-19T19:55:17.657Z,96032.88
2022-12-19T19:57:46.276Z,96021.59
2022-12-19T20:00:12.961Z,96001.66
2022-12-19T20:02:39.797Z,95999.31
2022-12-19T20:05:06.664Z,95993.69
2022-12-19T20:07:33.302Z,96002.13
2022-12-19T20:09:59.758Z,96002.13
2022-12-19T20:12:26.288Z,96005.25
2022-12-19T20:14:52.913Z,96003.06
2022-12-19T20:17:19.423Z,95993.59
2022-12-19T20:19:46.553Z,95997.38
2022-12-19T20:22:15.797Z,95999.59
2022-12-19T20:24:42.398Z,95995.69
2022-12-19T20:27:09.240Z,95993.59
2022-12-19T20:29:36.633Z,96002.53
2022-12-19T20:32:04.023Z,95980.75
2022-12-19T20:34:30.683Z,95990.75
2022-12-19T20:36:57.130Z,95977.41
2022-12-19T20:39:23.623Z,95970.66
2022-12-19T20:41:50.840Z,95967.31
2022-12-19T20:44:23.599Z,95958.56
2022-12-19T20:46:51.171Z,95957.13
2022-12-19T20:49:18.817Z,95955.84
2022-12-19T20:51:47.742Z,95951.31
2022-12-19T20:54:15.769Z,95964.66
2022-12-19T20:56:42.832Z,95984.16
2022-12-19T20:59:09.953Z,95979.75
2022-12-19T21:01:36.612Z,95969.50
2022-12-19T21:04:03.922Z,95981.03
2022-12-19T21:06:30.591Z,95980.19
2022-12-19T21:08:57.280Z,95965.63
2022-12-19T21:11:24.461Z,95960.94
2022-12-19T21:13:53.028Z,95946.50
2022-12-19T21:16:20.721Z,95944.09
2022-12-19T21:18:47.957Z,95950.66
2022-12-19T21:21:19.656Z,95947.22
2022-12-19T21:23:46.411Z,95932.63
2022-12-19T21:26:13.058Z,95926.09
2022-12-19T21:28:41.786Z,95917.94
2022-12-19T21:31:28.550Z,95901.00
2022-12-19T21:33:59.050Z,95876.16
2022-12-19T21:36:26.950Z,95877.44
2022-12-19T21:38:55.190Z,95865.22
2022-12-19T21:41:22.401Z,95868.72
2022-12-19T21:43:51.681Z,95879.91
2022-12-19T21:46:18.913Z,95876.34
2022-12-19T21:48:47.073Z,95878.25
2022-12-19T21:51:13.935Z,95850.00
2022-12-19T21:53:40.927Z,95820.41
2022-12-19T21:56:10.659Z,95818.22
2022-12-19T21:58:37.096Z,95819.94
2022-12-19T22:01:11.081Z,95829.38
2022-12-19T22:03:38.415Z,95814.94
2022-12-19T22:06:05.658Z,95816.06
2022-12-19T22:08:32.718Z,95803.28
2022-12-19T22:10:59.763Z,95794.63
2022-12-19T22:13:26.342Z,95805.34
2022-12-19T22:15:52.882Z,95804.44
2022-12-19T22:18:19.667Z,95805.84
2022-12-19T22:20:46.918Z,95803.84
2022-12-19T22:23:13.803Z,95798.19
2022-12-19T22:25:41.148Z,95791.16
2022-12-19T22:28:07.649Z,95790.94
2022-12-19T22:30:35.749Z,95794.44
2022-12-19T22:33:03.687Z,95786.44
2022-12-19T22:35:30.517Z,95782.22
2022-12-19T22:37:57.204Z,95789.09
2022-12-19T22:40:23.737Z,95770.97
2022-12-19T22:42:50.241Z,95769.44
2022-12-19T22:45:16.816Z,95758.78
2022-12-19T22:47:43.327Z,95752.31
2022-12-19T22:50:10.689Z,95740.56
2022-12-19T22:52:38.208Z,95744.00
2022-12-19T22:55:04.896Z,95737.50
2022-12-19T22:57:31.362Z,95734.41
2022-12-19T22:59:57.797Z,95728.16
2022-12-19T23:02:24.463Z,95716.19
2022-12-19T23:04:53.095Z,95722.31
2022-12-19T23:07:19.629Z,95715.56
2022-12-19T23:09:48.277Z,95716.09
2022-12-19T23:12:14.747Z,95696.00
2022-12-19T23:14:41.276Z,95689.38
2022-12-19T23:17:07.901Z,95681.97
2022-12-19T23:19:35.210Z,95669.38
2022-12-19T23:22:01.734Z,95683.19
2022-12-19T23:24:30.273Z,95683.63
2022-12-19T23:26:56.778Z,95686.63
2022-12-19T23:29:23.244Z,95682.41
2022-12-19T23:31:49.907Z,95685.84
2022-12-19T23:34:16.611Z,95702.97
2022-12-19T23:37:10.096Z,95686.88
2022-12-19T23:39:29.610Z,95681.78
2022-12-19T23:41:56.224Z,95681.09
2022-12-19T23:44:22.837Z,95672.31
2022-12-19T23:46:49.571Z,95672.06
2022-12-19T23:49:16.140Z,95668.63
2022-12-19T23:51:42.676Z,95651.66
2022-12-19T23:54:09.349Z,95650.25
2022-12-19T23:56:35.999Z,95635.84
2022-12-19T23:59:04.917Z,95620.31
